McNatts, Indiana
Current Conditions -  °F | °C
As of 8:53 AM on Friday 28 Nov 2014 (Local Time) from KMIE Reporting Station
Overcast Overcast  
Wind Chill: 16°   Ceiling: 9000
Heat Index: 23°   Visibility: 10mi
Dew Point: 16°   Wind: 6mph
Humidity: 74%   Direction: 160°SSE
Pressure: 30.33"   Gusts: NA
Location:  40.5457°N, 85.2546°W
Report Text: KMIE 281353Z 16005KT 10SM OVC090 M05/M09 A3033 RMK AO2 SLP282 T10501089
Loading
Personal Weather Stations






























Interactive Weather Map New forecast layout! Learn more

10-Day Weather Forecast

Advertisements
Track Severe Weather on mobile